Aeroporto :
LOGIN :

Iscrizione | Disclaimer

   EN    FR    IT 

 










Sommario :    VFR   VFR Marginale   IFR   IFR Intensivo   IFR Molto Intensivo
Visibilità : 
Base nubi : 
>= 8 km
>= 3000ft
5 / 8 km
1000 / 3000 ft
1500m / 5 km
500 / 1000 ft
800 / 1500m
200 / 500 ft
< 800m
< 200 ft
Simboli :   Temporali  Nebbia  Neve Forte  Precipitazioni Forti  Vento > 20 kt
SIGMETs :   Varie  Temporali  Ghiacco  Turbolenza  Onda orograficha  Ceneri Vulcaniche






- Altitudine del aeroporto : 124 ft
- Codice IATA : RNS


LFRN - Rennes

ULTIMO METAR :
  • 032000Z AUTO 30007KT 260V340 9999 ///CB 15/13 Q1003 TEMPO VRB15G25KT 4000 SHRA

METARs OBSOLETI :
  • 031930Z AUTO 30009KT 9000 -RA VCTS ///CB 15/13 Q1003 TEMPO 4000 SHRA BECMG 36010KT
  • 031900Z AUTO 28012KT 4600 -RA BR ///CB 15/13 Q1003 TEMPO VRB15G25KT TSRAGR
  • 031830Z AUTO 27012KT 8000 -RA ///CB 15/13 Q1003 TEMPO VRB15G25KT 3000 TSRAGR
  • 031800Z AUTO 26007KT 9999 -RA ///CB 15/13 Q1003 TEMPO VRB15G25KT 3000 TSRAGR
  • 031730Z AUTO 30007KT 9999 RA ///CB 17/12 Q1003 TEMPO VRB15G25KT 3000 TSRAGR

TAF TAF LFRN
Valido dal 03 a 18 ore il 04 a 18 ore UTC


031700Z 0318/0418 36010KT 9999 BKN030
TEMPO 0318/0402 4000 SHRA BKN030CB
PROB40
TEMPO 0318/0321 VRB15G25KT 3000 TSRAGR
TEMPO 0402/0409 5000 SHRA BKN015TCU
TEMPO 0406/0409 BKN010
PROB30
TEMPO 0414/0418 33015G25KT
ATIS : +33 2 99 67 72 50



MetMap, La meteo Aeronautica in un colpo d'occhio ! - Copyright ORBIFLY Dicembre 2007 - Disclaimer

ORBIFLY MET'MAP TEAM :

Programmazione e sviluppo : Alexandra Zaïnal
Concezione : Baudouin d'Aumeries
Aiuto per la programmazione : Marc-Olivier Méhu
Supporto tecnico e logistico : Manuel Goepfert
Aiuto per la traduzione : Arnaldo La Scala

Contatto : metmap@orbifly.com




FONTI E CREDITI :

   NOAA